Time;durP1;ratioP1;P1;durP2;ratioP2;P2;SDS_P1;SDS_P2;PMS_P1;PMS_P2;Temp;Humidity;BMP_temperature;BMP_pressure;BME280_temperature;BME280_humidity;BME280_pressure;Samples;Min_cycle;Max_cycle;Signal;HPM_P1;HPM_P2
2021/12/02 00:01:28;;;;;;;1.10;0.20;;;;;;;6.97;65.30;95595.81;9773050;30;20485;-79
2021/12/02 00:06:49;;;;;;;0.63;0.10;;;;;;;6.89;64.82;95601.69;9760951;30;20059;-79
2021/12/02 00:12:10;;;;;;;0.60;0.20;;;;;;;6.75;64.15;95583.66;9772686;30;20072;-79
2021/12/02 00:17:36;;;;;;;1.08;0.20;;;;;;;6.64;64.84;95588.00;9772778;30;20424;-79
2021/12/02 00:23:27;;;;;;;0.82;0.10;;;;;;;6.45;64.25;95594.72;9747505;30;20416;-79
2021/12/02 00:28:53;;;;;;;0.20;0.10;;;;;;;6.35;64.66;95597.00;9796630;30;20069;-79
2021/12/02 00:34:14;;;;;;;1.23;0.20;;;;;;;6.29;64.82;95605.75;9772941;30;20053;-79
2021/12/02 00:39:35;;;;;;;0.30;0.10;;;;;;;6.20;64.91;95609.47;9760656;30;20055;-79
2021/12/02 00:44:57;;;;;;;0.45;0.10;;;;;;;6.13;64.98;95604.22;9760217;30;20524;-79
2021/12/02 00:50:18;;;;;;;0.85;0.20;;;;;;;6.03;65.31;95599.63;9772240;30;20083;-79
2021/12/02 00:55:41;;;;;;;0.88;0.20;;;;;;;5.98;65.30;95598.00;9760648;30;20048;-79
2021/12/02 01:01:03;;;;;;;0.25;0.17;;;;;;;5.94;65.28;95617.16;9767253;30;20485;-79
2021/12/02 01:06:25;;;;;;;0.35;0.10;;;;;;;5.87;65.39;95620.91;9778722;30;20052;-78
2021/12/02 01:11:46;;;;;;;0.20;0.10;;;;;;;5.83;65.89;95629.03;9778671;30;20485;-79
2021/12/02 01:17:07;;;;;;;0.85;0.10;;;;;;;5.85;66.18;95631.19;9778597;30;20124;-78
2021/12/02 01:22:33;;;;;;;0.43;0.20;;;;;;;6.04;65.79;95639.09;9778427;30;20072;-79
2021/12/02 01:27:56;;;;;;;1.90;0.22;;;;;;;6.11;65.95;95624.25;9779161;30;20520;-79
2021/12/02 01:33:19;;;;;;;0.60;0.10;;;;;;;6.12;66.40;95638.81;9765826;30;20475;-79
2021/12/02 01:38:41;;;;;;;0.40;0.20;;;;;;;6.10;66.35;95638.72;9777796;30;20572;-79
2021/12/02 01:44:03;;;;;;;0.43;0.15;;;;;;;6.20;66.39;95636.44;9765714;30;20473;-79
2021/12/02 01:49:31;;;;;;;0.57;0.15;;;;;;;6.13;66.59;95631.94;9777351;30;20057;-79
2021/12/02 01:55:06;;;;;;;0.77;0.10;;;;;;;6.01;66.59;95640.34;9766157;30;20060;-79
2021/12/02 02:00:42;;;;;;;0.20;0.10;;;;;;;5.86;67.51;95627.06;9766603;30;20424;-79
2021/12/02 02:06:05;;;;;;;0.25;0.10;;;;;;;5.77;67.57;95637.00;9766825;30;20048;-79
2021/12/02 02:11:28;;;;;;;0.10;0.00;;;;;;;5.69;68.04;95642.13;9777078;30;20049;-79
2021/12/02 02:16:49;;;;;;;1.60;0.10;;;;;;;5.60;68.53;95651.34;9776375;30;20048;-79
2021/12/02 02:22:12;;;;;;;0.30;0.10;;;;;;;5.49;69.41;95661.16;9776379;30;20377;-79
2021/12/02 02:27:34;;;;;;;0.30;0.10;;;;;;;5.46;69.87;95665.84;9776947;30;20105;-79
2021/12/02 02:32:56;;;;;;;0.50;0.10;;;;;;;5.62;69.57;95673.59;9764061;30;20118;-79
2021/12/02 02:38:18;;;;;;;0.52;0.10;;;;;;;5.85;69.53;95675.47;9764043;30;20052;-79
2021/12/02 02:43:39;;;;;;;0.75;0.10;;;;;;;5.84;69.55;95666.44;9763579;30;20052;-79
2021/12/02 02:49:04;;;;;;;0.10;0.10;;;;;;;5.70;69.04;95676.78;9775721;30;20057;-78
2021/12/02 02:54:25;;;;;;;0.20;0.10;;;;;;;5.60;68.90;95687.34;9763126;30;20495;-79
2021/12/02 03:10:48;;;;;;;0.15;0.10;;;;;;;5.59;68.38;95710.78;9762601;30;20053;-79
2021/12/02 03:21:48;;;;;;;0.20;0.00;;;;;;;5.98;67.73;95703.22;9778406;30;20059;-79
2021/12/02 03:27:10;;;;;;;1.65;0.20;;;;;;;6.09;68.07;95718.31;9774494;30;20064;-79
2021/12/02 03:32:32;;;;;;;0.30;0.10;;;;;;;6.17;67.66;95718.00;9773829;30;20048;-79
2021/12/02 03:37:53;;;;;;;0.00;0.00;;;;;;;6.23;67.41;95730.13;9761702;30;20049;-79
2021/12/02 03:43:14;;;;;;;0.30;0.10;;;;;;;6.23;67.07;95741.19;9761703;30;20049;-79
2021/12/02 03:48:42;;;;;;;0.22;0.10;;;;;;;6.23;67.30;95729.41;9763154;30;20059;-79
2021/12/02 03:54:04;;;;;;;1.00;0.25;;;;;;;6.22;67.45;95736.28;9761681;30;20057;-79
2021/12/02 03:59:25;;;;;;;0.10;0.10;;;;;;;6.25;67.32;95735.03;9779680;30;20074;-79
2021/12/02 04:04:47;;;;;;;0.28;0.10;;;;;;;6.26;67.35;95742.03;9791368;30;20127;-79
2021/12/02 04:10:08;;;;;;;0.30;0.05;;;;;;;6.28;67.72;95753.22;9792166;30;20048;-79
2021/12/02 04:15:35;;;;;;;0.10;0.08;;;;;;;6.27;66.74;95757.31;9797971;30;20048;-79
2021/12/02 04:20:56;;;;;;;0.68;0.10;;;;;;;6.26;67.12;95761.41;9782862;30;20114;-79
2021/12/02 04:26:18;;;;;;;0.32;0.10;;;;;;;6.25;66.96;95762.75;9774318;30;20206;-79
2021/12/02 04:31:43;;;;;;;0.45;0.10;;;;;;;6.18;66.80;95772.81;9785252;30;20109;-79
2021/12/02 04:37:04;;;;;;;0.80;0.10;;;;;;;6.13;66.62;95767.66;9795792;30;20131;-79
2021/12/02 04:42:25;;;;;;;1.75;0.20;;;;;;;6.15;66.84;95779.56;9809676;30;20124;-79
2021/12/02 04:47:46;;;;;;;0.20;0.10;;;;;;;6.19;67.14;95784.63;9817856;30;20060;-79
2021/12/02 04:53:07;;;;;;;0.60;0.10;;;;;;;6.19;66.47;95792.94;9802205;30;20109;-79
2021/12/02 04:58:29;;;;;;;0.90;0.20;;;;;;;6.05;66.44;95797.69;9797900;30;20044;-79
2021/12/02 05:03:49;;;;;;;0.20;0.10;;;;;;;5.92;66.64;95783.22;9796223;30;20052;-79
2021/12/02 05:09:10;;;;;;;0.28;0.10;;;;;;;5.72;66.14;95795.94;9798056;30;20488;-79
2021/12/02 05:14:31;;;;;;;0.65;0.10;;;;;;;5.58;66.79;95792.38;9792623;30;20044;-79
2021/12/02 05:19:52;;;;;;;0.50;0.10;;;;;;;5.60;66.88;95789.75;9799159;30;20055;-79
2021/12/02 05:25:16;;;;;;;0.68;0.20;;;;;;;5.62;67.47;95795.38;9795914;30;20117;-79
2021/12/02 05:30:37;;;;;;;1.15;0.20;;;;;;;5.74;67.07;95809.88;9787042;30;20070;-79
2021/12/02 05:35:58;;;;;;;0.30;0.20;;;;;;;5.81;67.15;95814.44;9777781;30;20128;-79
2021/12/02 05:41:19;;;;;;;1.13;0.30;;;;;;;5.89;66.61;95812.09;9779816;30;20056;-78
2021/12/02 05:46:40;;;;;;;1.17;0.13;;;;;;;5.91;66.19;95809.47;9813790;30;20488;-78
2021/12/02 05:52:02;;;;;;;1.90;0.20;;;;;;;5.89;66.19;95809.34;9814198;30;20048;-78
2021/12/02 05:57:25;;;;;;;0.20;0.10;;;;;;;5.85;65.93;95819.47;9811929;30;20048;-78
2021/12/02 06:02:46;;;;;;;0.30;0.10;;;;;;;5.85;65.87;95820.19;9812932;30;20068;-78
2021/12/02 06:08:09;;;;;;;0.30;0.10;;;;;;;5.81;66.44;95825.50;9814058;30;20544;-78
2021/12/02 06:13:30;;;;;;;0.85;0.20;;;;;;;5.78;66.57;95828.75;9813374;30;20052;-78
2021/12/02 06:18:51;;;;;;;0.55;0.10;;;;;;;5.73;66.52;95836.13;9800798;30;20113;-78
2021/12/02 06:24:14;;;;;;;2.85;0.52;;;;;;;5.68;66.63;95840.72;9813551;30;20527;-78
2021/12/02 06:29:36;;;;;;;0.60;0.23;;;;;;;5.64;66.41;95851.56;9813562;30;20067;-78
2021/12/02 06:34:57;;;;;;;1.42;0.20;;;;;;;5.57;66.23;95852.53;9801191;30;20504;-78
2021/12/02 06:40:18;;;;;;;0.98;0.20;;;;;;;5.53;66.59;95857.88;9812283;30;20048;-78
2021/12/02 06:45:40;;;;;;;1.30;0.30;;;;;;;5.52;66.73;95866.78;9812346;30;20064;-78
2021/12/02 06:51:01;;;;;;;0.95;0.30;;;;;;;5.43;66.28;95863.56;9812235;30;20048;-78
2021/12/02 06:56:25;;;;;;;1.45;0.40;;;;;;;5.34;66.79;95869.22;9810723;30;20384;-78
2021/12/02 07:01:46;;;;;;;0.80;0.30;;;;;;;5.36;65.87;95872.09;9823817;30;20131;-78
2021/12/02 07:07:08;;;;;;;1.73;0.30;;;;;;;5.35;66.17;95881.72;9811824;30;20462;-78
2021/12/02 07:12:32;;;;;;;0.80;0.22;;;;;;;5.32;66.27;95889.19;9811975;30;20055;-78
2021/12/02 07:17:57;;;;;;;0.80;0.28;;;;;;;5.31;65.59;95885.00;9799713;30;20048;-78
2021/12/02 07:23:19;;;;;;;0.60;0.20;;;;;;;5.29;65.71;95897.97;9811868;30;20044;-78
2021/12/02 07:28:43;;;;;;;1.73;0.30;;;;;;;5.38;65.91;95897.84;9810784;30;20067;-78
2021/12/02 07:34:05;;;;;;;0.70;0.20;;;;;;;5.84;64.71;95893.50;9810363;30;20114;-78
2021/12/02 07:39:25;;;;;;;0.80;0.20;;;;;;;8.15;62.02;95889.34;9822035;30;20052;-78
2021/12/02 07:44:46;;;;;;;1.60;0.20;;;;;;;11.15;57.91;95897.56;9797635;30;20123;-78
2021/12/02 07:50:17;;;;;;;1.63;0.20;;;;;;;14.27;51.01;95907.53;9809656;30;20055;-78
2021/12/02 07:55:40;;;;;;;1.80;0.32;;;;;;;13.08;50.17;95905.84;9798484;30;20063;-78
2021/12/02 08:01:02;;;;;;;1.50;0.30;;;;;;;13.45;48.56;95901.97;9822665;30;20059;-78
2021/12/02 08:06:24;;;;;;;3.70;0.35;;;;;;;15.13;48.44;95916.50;9847416;30;20052;-77
2021/12/02 08:11:46;;;;;;;1.23;0.30;;;;;;;18.67;44.17;95925.72;9835110;30;20483;-76
2021/12/02 08:17:07;;;;;;;1.33;0.30;;;;;;;19.71;38.45;95935.50;9834409;30;20048;-77
2021/12/02 08:22:31;;;;;;;1.58;0.30;;;;;;;22.40;35.32;95952.75;9835228;30;20131;-75
2021/12/02 08:27:53;;;;;;;1.37;0.40;;;;;;;25.64;28.35;95954.88;9834116;30;20070;-75
2021/12/02 08:33:14;;;;;;;1.38;0.38;;;;;;;29.79;25.42;95974.22;9834656;30;20087;-76
2021/12/02 08:38:36;;;;;;;2.25;0.30;;;;;;;30.63;25.57;95980.44;9822877;30;20472;-79
2021/12/02 08:43:57;;;;;;;2.30;0.35;;;;;;;27.28;25.37;95963.34;9833958;30;20049;-80
2021/12/02 08:49:19;;;;;;;1.33;0.30;;;;;;;23.17;26.60;95971.31;9822046;30;20052;-77
2021/12/02 08:54:40;;;;;;;2.70;0.30;;;;;;;18.77;28.25;95968.19;9822332;30;20060;-76
2021/12/02 09:00:01;;;;;;;1.30;0.35;;;;;;;16.33;30.85;95979.97;9835210;30;20079;-75
2021/12/02 09:05:23;;;;;;;0.60;0.25;;;;;;;14.66;32.38;95989.91;9832961;30;20058;-78
2021/12/02 09:10:44;;;;;;;2.10;0.20;;;;;;;13.63;33.30;95986.56;9818766;30;20044;-78
2021/12/02 09:16:04;;;;;;;2.53;0.40;;;;;;;13.42;34.04;95993.00;9832703;30;20048;-78
2021/12/02 09:21:30;;;;;;;2.50;0.20;;;;;;;17.66;32.13;95982.59;9827191;30;20052;-76
2021/12/02 09:26:52;;;;;;;1.48;0.32;;;;;;;15.70;31.21;95992.88;9850643;30;20117;-78
2021/12/02 09:32:13;;;;;;;1.25;0.30;;;;;;;13.74;32.66;95995.97;9838759;30;20454;-75
2021/12/02 09:37:53;;;;;;;1.20;0.30;;;;;;;12.67;34.39;95997.03;9830151;30;20056;-76
2021/12/02 09:43:15;;;;;;;2.00;0.50;;;;;;;12.07;35.08;95990.91;9840912;30;20080;-75
2021/12/02 09:48:36;;;;;;;1.45;0.30;;;;;;;11.84;35.76;95983.81;9840527;30;20051;-76
2021/12/02 09:54:15;;;;;;;2.15;0.65;;;;;;;12.90;35.70;95981.63;9828986;30;20048;-76
2021/12/02 10:05:04;;;;;;;1.38;0.40;;;;;;;11.72;36.34;95972.91;9842793;30;20131;-76
2021/12/02 10:10:33;;;;;;;2.38;0.50;;;;;;;10.97;37.44;95975.06;9841988;30;20122;-77
2021/12/02 10:16:38;;;;;;;1.42;0.30;;;;;;;10.59;38.22;95978.53;9840687;30;20059;-78
2021/12/02 10:22:03;;;;;;;5.40;0.80;;;;;;;10.28;38.92;95987.78;9851264;30;20056;-79
2021/12/02 10:27:24;;;;;;;2.25;0.40;;;;;;;10.07;39.58;95987.56;9837704;30;20067;-79
2021/12/02 10:32:52;;;;;;;4.10;0.40;;;;;;;9.85;39.33;95979.72;9838079;24;20064;-77
2021/12/02 10:44:27;;;;;;;4.57;0.50;;;;;;;9.02;41.64;95978.88;9973471;24;20123;-86
2021/12/02 10:50:08;;;;;;;1.13;0.40;;;;;;;8.63;42.02;95979.91;9856904;30;20052;-86
2021/12/02 10:55:31;;;;;;;2.47;0.50;;;;;;;8.65;42.70;95977.19;9846777;29;20061;-83
2021/12/02 11:00:53;;;;;;;3.15;0.55;;;;;;;8.75;42.83;95985.31;9827508;30;20048;-83
2021/12/02 11:06:41;;;;;;;2.95;0.30;;;;;;;8.42;43.78;95971.94;9787678;30;20052;-79
2021/12/02 11:12:18;;;;;;;1.05;0.40;;;;;;;8.40;43.74;95969.81;9802518;30;20389;-79
2021/12/02 11:17:46;;;;;;;1.52;0.30;;;;;;;8.60;43.47;95967.97;9799652;30;20052;-79
2021/12/02 11:23:36;;;;;;;2.08;0.32;;;;;;;8.57;43.79;95971.25;9811755;30;20060;-79
2021/12/02 11:28:58;;;;;;;2.47;0.52;;;;;;;8.92;44.02;95964.50;9814814;30;20146;-79
2021/12/02 11:34:19;;;;;;;1.25;0.20;;;;;;;9.00;43.85;95964.88;9811822;30;20047;-79
2021/12/02 11:39:41;;;;;;;1.85;0.40;;;;;;;8.92;44.18;95975.63;9822191;30;20064;-79
2021/12/02 11:45:02;;;;;;;1.33;0.30;;;;;;;8.59;44.71;95974.16;9810903;30;20048;-79
2021/12/02 11:50:28;;;;;;;1.73;0.30;;;;;;;8.34;44.62;95983.38;9798091;30;20048;-80
2021/12/02 11:55:52;;;;;;;1.38;0.35;;;;;;;8.11;45.36;95966.97;9810581;30;20048;-80
2021/12/02 12:01:19;;;;;;;;;;;;;;;7.94;46.25;95982.13;9829193;30;20056;-84
2021/12/02 12:06:41;;;;;;;3.30;0.40;;;;;;;7.74;46.60;95993.69;9858917;30;19918;-84
2021/12/02 12:12:03;;;;;;;1.55;0.52;;;;;;;7.87;47.18;95997.78;9871331;30;20043;-85
2021/12/02 12:17:25;;;;;;;3.20;0.65;;;;;;;7.74;49.01;95998.53;9847238;30;20052;-83
2021/12/02 12:22:46;;;;;;;1.90;0.90;;;;;;;7.53;49.37;95996.03;9846962;30;20059;-83
2021/12/02 12:28:08;;;;;;;1.20;0.52;;;;;;;7.38;48.91;95987.00;9839514;30;20055;-79
2021/12/02 12:33:37;;;;;;;3.40;0.85;;;;;;;7.28;49.58;95991.31;9811323;30;20063;-76
2021/12/02 12:39:26;;;;;;;2.10;0.80;;;;;;;7.18;49.95;95992.22;9831949;30;20135;-80
2021/12/02 12:44:52;;;;;;;1.63;0.60;;;;;;;7.22;51.42;96004.84;9839567;30;20052;-83
2021/12/02 12:50:24;;;;;;;3.22;0.70;;;;;;;7.21;50.57;96001.34;9840574;30;20142;-81
2021/12/02 12:55:55;;;;;;;3.25;0.90;;;;;;;7.25;51.56;95996.03;9844656;30;20049;-80
2021/12/02 13:01:22;;;;;;;2.33;0.73;;;;;;;7.33;51.61;96001.97;9829734;30;20048;-80
2021/12/02 13:07:04;;;;;;;3.35;0.90;;;;;;;7.09;52.88;95995.19;9809323;30;20060;-75
2021/12/02 13:12:28;;;;;;;3.60;1.10;;;;;;;6.82;52.98;95993.06;9814742;30;20514;-75
2021/12/02 13:17:57;;;;;;;2.17;0.80;;;;;;;6.85;53.49;95989.03;9802555;30;20058;-76
2021/12/02 13:23:20;;;;;;;3.17;0.57;;;;;;;6.93;54.38;96000.56;9814694;30;20067;-76
2021/12/02 13:28:42;;;;;;;3.97;0.80;;;;;;;6.96;53.98;95996.59;9826128;30;20056;-75
2021/12/02 13:34:06;;;;;;;3.42;1.17;;;;;;;6.84;53.83;95998.69;9813815;30;20052;-76
2021/12/02 13:39:29;;;;;;;4.38;1.60;;;;;;;6.60;54.44;95993.28;9826301;30;20135;-75
2021/12/02 13:44:52;;;;;;;2.22;1.17;;;;;;;6.55;55.02;95988.84;9801345;30;20060;-75
2021/12/02 13:50:19;;;;;;;2.78;1.23;;;;;;;6.52;55.13;96003.22;9813549;30;20048;-76
2021/12/02 13:55:44;;;;;;;4.05;1.27;;;;;;;6.43;55.82;95999.28;9814666;30;20094;-75
2021/12/02 14:01:06;;;;;;;2.95;1.42;;;;;;;6.36;55.98;95997.50;9801620;30;20137;-75
2021/12/02 14:06:27;;;;;;;4.75;1.27;;;;;;;6.24;56.50;96005.13;9812267;30;20056;-75
2021/12/02 14:11:48;;;;;;;3.17;1.30;;;;;;;6.09;56.48;96008.47;9787895;30;20139;-78
2021/12/02 14:17:19;;;;;;;3.53;1.55;;;;;;;6.00;56.88;96019.06;9801439;30;20054;-74
2021/12/02 14:23:01;;;;;;;3.50;1.38;;;;;;;5.91;57.37;96016.44;9783004;30;20061;-74
2021/12/02 14:28:28;;;;;;;2.95;1.35;;;;;;;5.90;57.75;96026.81;9776035;30;20053;-74
2021/12/02 14:33:50;;;;;;;3.03;1.08;;;;;;;5.93;57.39;96036.66;9787753;30;20151;-74
2021/12/02 14:39:13;;;;;;;3.97;1.48;;;;;;;5.94;57.97;96060.25;9776001;30;20052;-74
2021/12/02 14:44:35;;;;;;;6.25;3.90;;;;;;;5.92;58.67;96067.72;9774837;30;20079;-74
2021/12/02 14:50:06;;;;;;;9.40;4.43;;;;;;;5.87;58.30;96066.72;9775138;30;20048;-74
2021/12/02 14:55:30;;;;;;;9.85;5.18;;;;;;;5.82;58.44;96080.97;9774633;30;20059;-74
2021/12/02 15:01:08;;;;;;;8.82;3.85;;;;;;;5.80;59.04;96084.34;9786753;30;20060;-74
2021/12/02 15:06:35;;;;;;;5.45;2.30;;;;;;;5.77;58.97;96085.53;9798789;30;20059;-74
2021/12/02 15:11:59;;;;;;;5.30;1.80;;;;;;;5.70;58.92;96094.81;9774774;30;20071;-74
2021/12/02 15:17:36;;;;;;;7.30;2.22;;;;;;;5.63;59.25;96104.06;9774167;30;20497;-74
2021/12/02 15:23:04;;;;;;;6.10;1.60;;;;;;;5.60;59.07;96106.00;9776460;30;20477;-74
2021/12/02 15:28:27;;;;;;;3.75;2.28;;;;;;;5.57;60.22;96112.72;9786518;30;20102;-74
2021/12/02 15:33:53;;;;;;;6.82;3.28;;;;;;;5.52;59.64;96118.63;9786740;30;20049;-74
2021/12/02 15:39:15;;;;;;;3.97;2.20;;;;;;;5.44;60.12;96114.03;9774160;30;20044;-74
2021/12/02 15:44:38;;;;;;;5.68;2.50;;;;;;;5.45;60.57;96123.06;9773408;30;20428;-74
2021/12/02 15:50:02;;;;;;;4.70;2.45;;;;;;;5.40;60.61;96127.63;9773956;30;20106;-75
2021/12/02 15:55:26;;;;;;;4.63;2.42;;;;;;;5.38;60.69;96141.34;9774337;30;20474;-74
2021/12/02 16:00:52;;;;;;;5.20;2.50;;;;;;;5.31;61.00;96144.34;9761060;30;20136;-74
2021/12/02 16:06:18;;;;;;;3.92;2.30;;;;;;;5.10;61.08;96158.94;9773794;30;20061;-76
2021/12/02 16:17:01;;;;;;;5.55;2.30;;;;;;;4.81;61.67;96164.72;9795902;30;20052;-74
2021/12/02 16:22:23;;;;;;;3.90;1.77;;;;;;;4.78;62.17;96174.94;9796352;30;20488;-76
2021/12/02 16:27:46;;;;;;;6.53;3.35;;;;;;;4.80;62.27;96179.84;9796512;30;20452;-78
2021/12/02 16:33:10;;;;;;;8.48;3.78;;;;;;;4.74;62.19;96173.94;9809079;30;20079;-77
2021/12/02 16:38:32;;;;;;;7.70;3.60;;;;;;;4.65;62.41;96167.19;9796471;30;20056;-78
2021/12/02 16:43:54;;;;;;;6.22;3.35;;;;;;;4.49;62.67;96168.88;9808198;30;20068;-81
2021/12/02 16:49:17;;;;;;;5.97;3.20;;;;;;;4.30;63.11;96178.00;9799871;30;20151;-79
2021/12/02 17:07:19;;;;;;;7.35;3.25;;;;;;;4.61;63.63;96233.22;11893575;24;20077;-81
2021/12/02 17:12:41;;;;;;;6.47;3.08;;;;;;;4.74;63.30;96232.00;9740028;30;20061;-80
2021/12/02 17:18:10;;;;;;;7.43;3.33;;;;;;;4.80;63.55;96235.88;9737264;30;20056;-81
2021/12/02 17:30:08;;;;;;;9.10;4.60;;;;;;;4.91;63.80;96233.75;9692911;30;20093;-80
2021/12/02 17:35:37;;;;;;;8.67;3.97;;;;;;;4.91;63.64;96250.34;9680133;30;20050;-82
2021/12/02 17:54:04;;;;;;;9.50;4.90;;;;;;;4.93;63.41;96256.03;11456682;24;20724;31
2021/12/02 17:59:28;;;;;;;7.35;4.45;;;;;;;4.89;63.72;96273.78;10011493;24;20053;-81
2021/12/02 18:04:50;;;;;;;9.65;5.20;;;;;;;4.87;63.66;96295.06;9743660;30;20092;-82
2021/12/02 18:10:17;;;;;;;12.25;5.55;;;;;;;4.83;63.62;96317.66;9744203;30;20049;-80
2021/12/02 18:15:38;;;;;;;;;;;;;;;4.77;63.60;96328.28;9742375;30;20497;-81
2021/12/02 18:21:01;;;;;;;11.68;4.07;;;;;;;4.77;62.86;96339.34;9745582;30;20393;-80
2021/12/02 18:26:25;;;;;;;9.85;4.35;;;;;;;4.69;62.64;96352.63;9750674;30;20041;-80
2021/12/02 18:31:49;;;;;;;9.20;4.20;;;;;;;4.59;62.25;96340.88;9765582;30;20052;-81
2021/12/02 18:37:12;;;;;;;8.82;2.85;;;;;;;4.43;61.68;96350.84;9743435;30;20049;-83
2021/12/02 18:42:33;;;;;;;10.55;4.85;;;;;;;4.38;62.28;96377.47;9744540;30;20523;-82
2021/12/02 18:47:58;;;;;;;7.25;2.45;;;;;;;4.30;62.45;96385.91;9741720;30;20048;-80
2021/12/02 18:53:19;;;;;;;6.22;1.80;;;;;;;4.37;63.15;96383.59;9753525;30;20083;-81
2021/12/02 18:58:43;;;;;;;6.00;1.73;;;;;;;4.30;62.86;96408.00;9763230;30;20118;-81
2021/12/02 19:04:06;;;;;;;6.07;1.60;;;;;;;4.31;63.21;96420.53;9765761;30;20132;-81
2021/12/02 19:22:29;;;;;;;7.35;1.95;;;;;;;4.33;63.62;96419.94;9770487;30;20053;-80
2021/12/02 19:26:45;;;;;;;8.00;2.33;;;;;;;4.24;63.83;96451.78;9779236;30;20131;-79
2021/12/02 19:32:07;;;;;;;6.47;2.38;;;;;;;4.25;63.81;96461.53;9762312;30;20052;-79
2021/12/02 19:37:28;;;;;;;3.85;1.67;;;;;;;4.20;64.39;96479.13;9762413;30;20052;-80
2021/12/02 19:42:49;;;;;;;5.90;2.20;;;;;;;4.16;64.10;96495.41;9762043;30;20127;-79
2021/12/02 19:48:11;;;;;;;4.15;1.85;;;;;;;4.12;64.29;96492.34;9762047;30;20048;-78
2021/12/02 19:53:33;;;;;;;8.10;2.42;;;;;;;4.06;63.63;96491.94;9761634;30;20055;-79
2021/12/02 19:58:56;;;;;;;6.70;2.28;;;;;;;4.06;64.06;96491.22;9761983;30;20057;-78
2021/12/02 20:04:20;;;;;;;6.50;2.00;;;;;;;4.06;64.02;96502.97;9761825;30;20477;-79
2021/12/02 20:09:46;;;;;;;4.25;1.75;;;;;;;4.05;64.26;96515.31;9762968;30;20546;-80
2021/12/02 20:15:10;;;;;;;5.22;1.83;;;;;;;4.06;64.00;96505.75;9773475;30;20423;-79
2021/12/02 20:20:40;;;;;;;6.10;2.08;;;;;;;4.06;63.73;96514.03;9764585;30;20496;-79
2021/12/02 20:26:08;;;;;;;4.93;1.83;;;;;;;4.03;63.52;96510.38;9760814;30;20045;-79
2021/12/02 20:31:36;;;;;;;4.78;1.50;;;;;;;4.00;63.35;96524.63;9762317;30;20079;-79
2021/12/02 20:37:07;;;;;;;5.22;1.80;;;;;;;4.03;63.08;96524.19;9762357;30;20130;-79
2021/12/02 20:42:36;;;;;;;4.57;1.70;;;;;;;4.07;62.53;96532.03;9763333;30;20064;-79
2021/12/02 20:53:40;;;;;;;4.45;2.00;;;;;;;4.02;62.90;96533.78;9764319;30;20063;-78
2021/12/02 20:59:04;;;;;;;6.32;2.55;;;;;;;3.93;62.94;96542.03;9761432;30;20095;-79
2021/12/02 21:04:41;;;;;;;5.05;1.50;;;;;;;3.77;62.85;96543.63;9762710;30;20059;-79
2021/12/02 21:10:16;;;;;;;7.15;1.70;;;;;;;3.55;62.97;96545.44;9778742;30;20202;-79
2021/12/02 21:15:38;;;;;;;6.18;2.80;;;;;;;3.30;63.17;96556.69;9764445;30;20070;-79
2021/12/02 21:21:03;;;;;;;;;;;;;;;3.10;63.25;96564.88;9767880;30;20064;-78
2021/12/02 21:26:25;;;;;;;8.35;3.20;;;;;;;2.91;64.06;96567.53;9813180;30;19926;-79
2021/12/02 21:31:51;;;;;;;7.68;3.10;;;;;;;2.80;64.06;96581.81;9801174;30;20048;-79
2021/12/02 21:37:17;;;;;;;7.97;2.80;;;;;;;2.70;64.27;96570.75;9815341;30;20056;-79
2021/12/02 21:42:38;;;;;;;9.10;3.72;;;;;;;2.59;64.79;96582.97;9803259;30;20052;-79
2021/12/02 21:47:59;;;;;;;7.07;3.05;;;;;;;2.54;64.80;96591.50;9789990;30;20055;-78
2021/12/02 21:53:21;;;;;;;10.43;3.92;;;;;;;2.52;64.91;96616.88;9802104;30;20082;-78
2021/12/02 21:58:42;;;;;;;7.65;4.10;;;;;;;2.55;64.61;96615.72;9802242;30;20462;-79
2021/12/02 22:04:04;;;;;;;9.85;4.13;;;;;;;2.59;64.46;96629.81;9813211;30;20060;-79
2021/12/02 22:09:26;;;;;;;8.60;3.78;;;;;;;2.66;64.71;96630.28;9789442;30;20492;-78
2021/12/02 22:14:48;;;;;;;6.70;3.60;;;;;;;2.69;64.65;96640.91;9789391;30;20109;-78
2021/12/02 22:20:10;;;;;;;6.45;2.83;;;;;;;2.67;64.28;96643.50;9801497;30;20052;-78
2021/12/02 22:25:31;;;;;;;8.35;3.25;;;;;;;2.67;64.21;96665.53;9800612;30;20377;-78
2021/12/02 22:30:53;;;;;;;8.63;3.13;;;;;;;2.68;64.16;96680.78;9776077;30;20052;-78
2021/12/02 22:36:16;;;;;;;9.00;4.20;;;;;;;2.53;64.27;96681.69;9780522;30;20496;-78
2021/12/02 22:41:37;;;;;;;8.00;4.40;;;;;;;2.37;64.46;96687.91;9780092;30;20496;-78
2021/12/02 22:46:59;;;;;;;7.10;3.50;;;;;;;2.19;65.10;96684.38;9778883;30;20068;-78
2021/12/02 22:52:20;;;;;;;8.45;3.35;;;;;;;2.05;64.83;96702.50;9767028;30;20045;-78
2021/12/02 22:57:41;;;;;;;7.57;3.53;;;;;;;1.96;64.62;96701.81;9779744;30;20125;-78
2021/12/02 23:03:02;;;;;;;6.78;3.40;;;;;;;1.87;64.85;96707.94;9777615;30;20128;-78
2021/12/02 23:08:25;;;;;;;8.95;3.40;;;;;;;1.79;65.15;96703.78;9797245;30;20060;-78
2021/12/02 23:13:46;;;;;;;7.07;2.47;;;;;;;1.67;65.14;96706.97;9788880;30;20055;-78
2021/12/02 23:19:07;;;;;;;6.38;2.72;;;;;;;1.55;64.41;96713.47;9776618;30;20408;-78
2021/12/02 23:24:37;;;;;;;5.55;2.10;;;;;;;1.49;64.85;96721.91;9798357;30;20050;-77
2021/12/02 23:29:58;;;;;;;5.28;1.55;;;;;;;1.44;64.32;96720.84;9800683;30;20044;-78
2021/12/02 23:35:19;;;;;;;3.45;1.38;;;;;;;1.39;63.94;96740.31;9798060;30;20052;-78
2021/12/02 23:40:40;;;;;;;4.97;1.02;;;;;;;1.31;64.17;96740.34;9798649;30;20066;-78
2021/12/02 23:46:02;;;;;;;3.67;1.40;;;;;;;1.21;63.88;96747.72;9798192;30;20423;-78
2021/12/02 23:51:23;;;;;;;2.15;0.90;;;;;;;1.14;63.87;96754.69;9810205;30;20048;-78
2021/12/02 23:56:44;;;;;;;2.65;0.95;;;;;;;1.17;62.96;96752.88;9797874;30;20060;-78
